createdAt,value
2019-05-19T00:02:40.824Z,15.80
2019-05-19T00:06:45.729Z,15.70
2019-05-19T00:10:50.561Z,15.70
2019-05-19T00:14:57.059Z,15.70
2019-05-19T00:19:01.997Z,15.70
2019-05-19T00:23:06.931Z,15.50
2019-05-19T00:27:11.763Z,15.30
2019-05-19T00:31:16.671Z,15.40
2019-05-19T00:35:22.656Z,15.10
2019-05-19T00:39:29.303Z,15.20
2019-05-19T00:43:34.621Z,15.20
2019-05-19T00:47:39.597Z,15.10
2019-05-19T00:51:44.908Z,15.20
2019-05-19T00:55:51.197Z,15.30
2019-05-19T00:59:56.692Z,15.30
2019-05-19T01:04:01.443Z,15.20
2019-05-19T01:08:07.611Z,14.90
2019-05-19T01:12:12.511Z,14.80
2019-05-19T01:16:17.396Z,14.90
2019-05-19T01:20:22.285Z,14.80
2019-05-19T01:24:27.181Z,15.00
2019-05-19T01:28:32.092Z,14.90
2019-05-19T01:32:37.279Z,14.50
2019-05-19T01:36:42.443Z,14.60
2019-05-19T01:40:47.581Z,14.60
2019-05-19T01:44:52.834Z,14.30
2019-05-19T01:48:57.652Z,14.30
2019-05-19T01:53:02.552Z,13.90
2019-05-19T01:57:07.454Z,13.90
2019-05-19T02:01:12.316Z,13.70
2019-05-19T02:05:17.519Z,13.40
2019-05-19T02:09:22.416Z,13.30
2019-05-19T02:13:27.314Z,13.40
2019-05-19T02:17:32.140Z,13.40
2019-05-19T02:21:37.008Z,13.60
2019-05-19T02:25:41.924Z,13.80
2019-05-19T02:29:46.824Z,13.70
2019-05-19T02:33:51.661Z,13.50
2019-05-19T02:37:56.569Z,13.60
2019-05-19T02:42:04.102Z,13.50
2019-05-19T02:46:11.127Z,13.30
2019-05-19T02:50:16.518Z,12.70
2019-05-19T02:54:22.026Z,12.30
2019-05-19T02:58:27.508Z,12.30
2019-05-19T03:02:32.231Z,12.10
2019-05-19T03:06:37.056Z,12.40
2019-05-19T03:10:41.951Z,12.60
2019-05-19T03:14:46.868Z,12.10
2019-05-19T03:18:52.860Z,12.00
2019-05-19T03:22:58.588Z,12.00
2019-05-19T03:27:03.397Z,12.10
2019-05-19T03:31:16.091Z,12.00
2019-05-19T03:35:20.847Z,12.00
2019-05-19T03:39:25.973Z,11.90
2019-05-19T03:43:30.739Z,11.70
2019-05-19T03:47:35.477Z,11.70
2019-05-19T03:51:40.321Z,11.70
2019-05-19T03:55:45.212Z,11.70
2019-05-19T03:59:50.114Z,11.70
2019-05-19T04:03:54.928Z,11.60
2019-05-19T04:07:59.781Z,11.70
2019-05-19T04:12:04.704Z,11.90
2019-05-19T04:16:09.536Z,12.10
2019-05-19T04:20:14.712Z,11.90
2019-05-19T04:24:19.563Z,11.90
2019-05-19T04:28:24.443Z,12.20
2019-05-19T04:32:29.260Z,12.10
2019-05-19T04:36:34.106Z,12.50
2019-05-19T04:40:38.925Z,12.40
2019-05-19T04:44:43.846Z,12.50
2019-05-19T04:48:48.657Z,12.40
2019-05-19T04:52:53.467Z,12.40
2019-05-19T04:56:58.413Z,12.40
2019-05-19T05:01:04.385Z,12.40
2019-05-19T05:05:09.288Z,12.60
2019-05-19T05:09:14.121Z,12.60
2019-05-19T05:13:18.998Z,12.70
2019-05-19T05:17:23.748Z,12.40
2019-05-19T05:21:28.641Z,12.70
2019-05-19T05:25:33.540Z,12.80
2019-05-19T05:29:38.443Z,12.90
2019-05-19T05:33:43.320Z,13.10
2019-05-19T05:37:48.208Z,13.30
2019-05-19T05:41:53.917Z,12.90
2019-05-19T05:45:58.795Z,13.00
2019-05-19T05:50:04.039Z,13.20
2019-05-19T05:54:08.940Z,13.20
2019-05-19T05:58:13.848Z,13.00
2019-05-19T06:02:18.706Z,13.20
2019-05-19T06:06:23.663Z,13.60
2019-05-19T06:10:28.605Z,13.70
2019-05-19T06:14:33.495Z,13.60
2019-05-19T06:18:38.388Z,13.80
2019-05-19T06:22:55.758Z,13.80
2019-05-19T06:26:49.829Z,14.00
2019-05-19T06:30:54.724Z,14.20
2019-05-19T06:34:59.628Z,14.10
2019-05-19T06:39:06.662Z,14.40
2019-05-19T06:43:11.692Z,14.40
2019-05-19T06:47:16.625Z,14.10
2019-05-19T06:51:21.426Z,14.10
2019-05-19T06:55:26.286Z,14.30
2019-05-19T06:59:31.236Z,14.30
2019-05-19T07:03:36.159Z,14.30
2019-05-19T07:07:41.206Z,14.70
2019-05-19T07:11:46.032Z,14.80
2019-05-19T07:15:50.941Z,14.70
2019-05-19T07:19:55.749Z,14.70
2019-05-19T07:24:00.926Z,14.80
2019-05-19T07:28:06.142Z,15.10
2019-05-19T07:32:11.076Z,15.20
2019-05-19T07:36:15.985Z,15.10
2019-05-19T07:40:20.865Z,15.10
2019-05-19T07:44:25.776Z,15.00
2019-05-19T07:48:30.688Z,15.20
2019-05-19T07:52:35.606Z,15.20
2019-05-19T07:56:40.445Z,15.50
2019-05-19T08:00:45.269Z,15.60
2019-05-19T08:04:50.185Z,15.80
2019-05-19T08:08:55.095Z,16.00
2019-05-19T08:12:59.989Z,16.30
2019-05-19T08:17:04.973Z,16.40
2019-05-19T08:21:09.989Z,16.70
2019-05-19T08:25:14.990Z,16.80
2019-05-19T08:29:19.990Z,16.80
2019-05-19T08:33:24.825Z,16.90
2019-05-19T08:37:29.797Z,17.00
2019-05-19T08:41:34.864Z,17.20
2019-05-19T08:45:39.736Z,17.40
2019-05-19T08:49:44.649Z,17.60
2019-05-19T08:53:49.557Z,17.70
2019-05-19T08:57:54.473Z,17.90
2019-05-19T09:01:59.292Z,18.20
2019-05-19T09:06:04.110Z,17.80
2019-05-19T09:10:10.128Z,17.70
2019-05-19T09:14:15.364Z,18.10
2019-05-19T09:18:20.209Z,18.40
2019-05-19T09:22:25.133Z,18.60
2019-05-19T09:26:30.020Z,18.30
2019-05-19T09:30:34.993Z,18.20
2019-05-19T09:34:40.176Z,18.60
2019-05-19T09:38:45.063Z,18.40
2019-05-19T09:42:49.890Z,18.70
2019-05-19T09:46:54.776Z,18.80
2019-05-19T09:50:59.819Z,19.00
2019-05-19T09:55:05.291Z,19.20
2019-05-19T09:59:10.155Z,19.20
2019-05-19T10:03:15.049Z,19.00
2019-05-19T10:07:19.946Z,19.40
2019-05-19T10:11:41.463Z,19.20
2019-05-19T10:15:46.376Z,19.50
2019-05-19T10:19:51.397Z,19.90
2019-05-19T10:23:56.395Z,20.20
2019-05-19T10:28:01.534Z,20.30
2019-05-19T10:32:06.410Z,20.20
2019-05-19T10:36:11.353Z,20.20
2019-05-19T10:40:16.877Z,20.10
2019-05-19T10:44:21.696Z,20.20
2019-05-19T10:48:26.735Z,20.40
2019-05-19T10:52:31.610Z,20.60
2019-05-19T10:56:36.779Z,20.70
2019-05-19T11:00:41.684Z,20.80
2019-05-19T11:04:46.933Z,21.00
2019-05-19T11:08:53.082Z,21.20
2019-05-19T11:12:57.904Z,21.30
2019-05-19T11:17:02.728Z,21.10
2019-05-19T11:21:07.681Z,21.50
2019-05-19T11:25:12.930Z,21.60
2019-05-19T11:29:17.960Z,21.60
2019-05-19T11:33:22.849Z,21.70
2019-05-19T11:37:27.688Z,22.10
2019-05-19T11:41:32.542Z,22.40
2019-05-19T11:45:37.464Z,22.50
2019-05-19T11:49:42.208Z,22.70
2019-05-19T11:53:47.115Z,22.70
2019-05-19T11:57:52.008Z,22.90
2019-05-19T12:01:56.896Z,23.20
2019-05-19T12:06:01.720Z,23.50
2019-05-19T12:10:07.008Z,23.70
2019-05-19T12:14:12.197Z,23.80
2019-05-19T12:18:17.050Z,24.00
2019-05-19T12:22:21.967Z,24.10
2019-05-19T12:26:26.895Z,24.50
2019-05-19T12:30:32.996Z,24.40
2019-05-19T12:34:37.901Z,24.70
2019-05-19T12:38:42.771Z,25.30
2019-05-19T12:42:47.748Z,25.60
2019-05-19T12:46:52.976Z,25.90
2019-05-19T12:50:57.809Z,26.00
2019-05-19T12:55:02.799Z,26.10
2019-05-19T12:59:07.717Z,26.50
2019-05-19T13:03:12.567Z,26.30
2019-05-19T13:07:17.468Z,26.90
2019-05-19T13:11:22.940Z,27.60
2019-05-19T13:15:27.844Z,27.80
2019-05-19T13:19:32.662Z,27.80
2019-05-19T13:23:37.487Z,28.30
2019-05-19T13:27:42.316Z,28.90
2019-05-19T13:31:47.141Z,29.20
2019-05-19T13:35:52.388Z,29.80
2019-05-19T13:39:57.325Z,29.80
2019-05-19T13:44:02.252Z,30.30
2019-05-19T13:48:07.164Z,30.60
2019-05-19T13:52:12.000Z,30.90
2019-05-19T13:56:16.917Z,31.90
2019-05-19T14:00:21.984Z,32.20
2019-05-19T14:04:26.820Z,32.30
2019-05-19T14:08:31.721Z,32.70
2019-05-19T14:12:59.566Z,33.10
2019-05-19T14:17:04.939Z,32.40
2019-05-19T14:21:10.108Z,30.90
2019-05-19T14:25:15.004Z,30.60
2019-05-19T14:29:19.914Z,31.30
2019-05-19T14:33:24.816Z,31.60
2019-05-19T14:37:29.722Z,31.70
2019-05-19T14:41:39.027Z,31.90
2019-05-19T14:45:43.932Z,32.30
2019-05-19T14:49:48.838Z,32.40
2019-05-19T14:53:53.747Z,32.90
2019-05-19T14:57:58.752Z,32.50
2019-05-19T15:02:03.660Z,32.20
2019-05-19T15:06:08.545Z,31.30
2019-05-19T15:10:13.442Z,30.30
2019-05-19T15:14:18.348Z,29.70
2019-05-19T15:18:23.190Z,29.40
2019-05-19T15:22:28.084Z,29.20
2019-05-19T15:26:33.202Z,28.80
2019-05-19T15:30:38.097Z,28.40
2019-05-19T15:34:42.873Z,28.10
2019-05-19T15:38:47.780Z,27.60
2019-05-19T15:42:52.532Z,27.60
2019-05-19T15:46:59.562Z,27.60
2019-05-19T15:51:04.497Z,27.50
2019-05-19T15:55:09.500Z,27.60
2019-05-19T15:59:14.342Z,27.70
2019-05-19T16:03:19.176Z,27.50
2019-05-19T16:07:24.029Z,27.60
2019-05-19T16:11:28.838Z,27.90
2019-05-19T16:15:34.934Z,27.80
2019-05-19T16:19:39.775Z,28.00
2019-05-19T16:23:44.694Z,28.20
2019-05-19T16:27:49.446Z,27.80
2019-05-19T16:31:54.249Z,27.30
2019-05-19T16:35:59.110Z,27.20
2019-05-19T16:40:04.318Z,27.30
2019-05-19T16:44:09.695Z,27.30
2019-05-19T16:48:15.791Z,27.30
2019-05-19T16:52:20.795Z,27.30
2019-05-19T16:56:25.821Z,27.10
2019-05-19T17:00:30.743Z,27.20
2019-05-19T17:04:35.651Z,27.10
2019-05-19T17:08:40.571Z,27.20
2019-05-19T17:12:45.467Z,27.10
2019-05-19T17:16:50.382Z,27.00
2019-05-19T17:20:55.392Z,26.80
2019-05-19T17:25:00.507Z,26.70
2019-05-19T17:29:05.560Z,26.50
2019-05-19T17:33:10.361Z,26.20
2019-05-19T17:37:15.196Z,25.70
2019-05-19T17:41:20.110Z,24.80
2019-05-19T17:45:26.066Z,24.20
2019-05-19T17:49:30.983Z,23.00
2019-05-19T17:53:35.860Z,22.50
2019-05-19T17:57:41.474Z,21.70
2019-05-19T18:01:46.372Z,21.00
2019-05-19T18:05:53.330Z,20.30
2019-05-19T18:09:58.293Z,20.30
2019-05-19T18:14:03.373Z,19.90
2019-05-19T18:18:08.260Z,20.10
2019-05-19T18:22:13.151Z,20.40
2019-05-19T18:26:18.065Z,20.50
2019-05-19T18:30:22.967Z,20.60
2019-05-19T18:34:29.036Z,20.80
2019-05-19T18:38:33.844Z,20.60
2019-05-19T18:42:38.785Z,20.50
2019-05-19T18:46:43.647Z,20.70
2019-05-19T18:50:48.472Z,20.70
2019-05-19T18:54:53.368Z,20.60
2019-05-19T18:58:58.272Z,20.50
2019-05-19T19:03:03.795Z,20.60
2019-05-19T19:07:08.757Z,20.30
2019-05-19T19:11:13.783Z,20.30
2019-05-19T19:15:19.800Z,20.20
2019-05-19T19:19:24.703Z,19.70
2019-05-19T19:23:29.521Z,19.40
2019-05-19T19:27:34.408Z,19.10
2019-05-19T19:31:48.051Z,18.90
2019-05-19T19:35:47.822Z,18.40
2019-05-19T19:39:52.745Z,17.60
2019-05-19T19:43:57.633Z,16.50
2019-05-19T19:48:02.561Z,15.90
2019-05-19T19:52:07.537Z,15.50
2019-05-19T19:56:12.458Z,15.30
2019-05-19T20:00:42.194Z,15.20
2019-05-19T20:04:47.152Z,15.40
2019-05-19T20:08:51.922Z,15.80
2019-05-19T20:12:56.857Z,16.40
2019-05-19T20:17:01.699Z,16.90
2019-05-19T20:21:07.704Z,17.20
2019-05-19T20:25:12.520Z,17.20
2019-05-19T20:29:17.409Z,16.20
2019-05-19T20:33:22.304Z,15.40
2019-05-19T20:37:27.109Z,15.10
2019-05-19T20:41:31.870Z,15.40
2019-05-19T20:45:36.811Z,15.20
2019-05-19T20:49:41.673Z,15.40
2019-05-19T20:53:46.433Z,15.90
2019-05-19T20:57:51.172Z,16.30
2019-05-19T21:01:56.063Z,16.60
2019-05-19T21:06:01.006Z,17.00
2019-05-19T21:10:06.719Z,17.30
2019-05-19T21:14:11.558Z,17.10
2019-05-19T21:18:16.457Z,17.20
2019-05-19T21:22:21.384Z,17.40
2019-05-19T21:26:26.341Z,17.50
2019-05-19T21:30:31.283Z,17.60
2019-05-19T21:34:36.447Z,17.40
2019-05-19T21:38:41.200Z,16.90
2019-05-19T21:42:47.119Z,16.10
2019-05-19T21:46:52.121Z,15.80
2019-05-19T21:50:56.920Z,15.50
2019-05-19T21:55:02.062Z,15.30
2019-05-19T21:59:06.901Z,15.20
2019-05-19T22:03:11.775Z,15.00
2019-05-19T22:07:27.432Z,14.80
2019-05-19T22:11:32.231Z,14.90
2019-05-19T22:15:37.440Z,15.00
2019-05-19T22:19:42.664Z,14.80
2019-05-19T22:23:47.551Z,14.40
2019-05-19T22:27:52.644Z,14.30
2019-05-19T22:31:57.464Z,14.70
2019-05-19T22:36:02.367Z,14.60
2019-05-19T22:40:07.268Z,14.40
2019-05-19T22:44:12.454Z,14.60
2019-05-19T22:48:17.410Z,14.90
2019-05-19T22:52:22.608Z,15.00
2019-05-19T22:56:28.556Z,15.00
2019-05-19T23:00:33.453Z,14.90
2019-05-19T23:04:38.355Z,15.10
2019-05-19T23:08:43.094Z,14.90
2019-05-19T23:12:48.356Z,14.60
2019-05-19T23:16:53.584Z,14.60
2019-05-19T23:20:58.547Z,14.80
2019-05-19T23:25:03.708Z,14.80
2019-05-19T23:29:08.445Z,14.80
2019-05-19T23:33:13.390Z,14.50
2019-05-19T23:37:18.146Z,14.30
2019-05-19T23:41:23.032Z,14.30
2019-05-19T23:45:27.960Z,14.30
2019-05-19T23:49:32.686Z,14.10
2019-05-19T23:53:37.512Z,14.00
2019-05-19T23:57:42.435Z,14.00
